sensor_id;sensor_type;location;lat;lon;timestamp;P1;durP1;ratioP1;P2;durP2;ratioP2
15295;SDS011;7749;49.964;7.890;2022-10-22T00:01:33;11.20;;;6.97;;
15295;SDS011;7749;49.964;7.890;2022-10-22T00:04:01;13.37;;;6.70;;
15295;SDS011;7749;49.964;7.890;2022-10-22T00:06:29;9.53;;;6.50;;
15295;SDS011;7749;49.964;7.890;2022-10-22T00:08:56;8.27;;;6.10;;
15295;SDS011;7749;49.964;7.890;2022-10-22T00:11:24;9.47;;;6.77;;
15295;SDS011;7749;49.964;7.890;2022-10-22T00:13:52;7.33;;;6.43;;
15295;SDS011;7749;49.964;7.890;2022-10-22T00:16:19;10.33;;;7.33;;
15295;SDS011;7749;49.964;7.890;2022-10-22T00:18:47;13.23;;;6.53;;
15295;SDS011;7749;49.964;7.890;2022-10-22T00:21:15;14.27;;;9.40;;
15295;SDS011;7749;49.964;7.890;2022-10-22T00:23:43;15.07;;;9.90;;
15295;SDS011;7749;49.964;7.890;2022-10-22T00:26:10;10.37;;;8.40;;
15295;SDS011;7749;49.964;7.890;2022-10-22T00:28:39;13.80;;;7.20;;
15295;SDS011;7749;49.964;7.890;2022-10-22T00:31:09;11.00;;;6.67;;
15295;SDS011;7749;49.964;7.890;2022-10-22T00:33:37;9.23;;;7.10;;
15295;SDS011;7749;49.964;7.890;2022-10-22T00:36:05;11.37;;;9.10;;
15295;SDS011;7749;49.964;7.890;2022-10-22T00:38:33;15.60;;;9.53;;
15295;SDS011;7749;49.964;7.890;2022-10-22T00:41:04;14.20;;;9.27;;
15295;SDS011;7749;49.964;7.890;2022-10-22T00:43:32;13.37;;;8.33;;
15295;SDS011;7749;49.964;7.890;2022-10-22T00:46:00;12.10;;;7.57;;
15295;SDS011;7749;49.964;7.890;2022-10-22T00:48:28;12.80;;;7.53;;
15295;SDS011;7749;49.964;7.890;2022-10-22T00:51:03;13.60;;;6.20;;
15295;SDS011;7749;49.964;7.890;2022-10-22T00:53:36;11.23;;;6.17;;
15295;SDS011;7749;49.964;7.890;2022-10-22T00:56:06;12.27;;;6.10;;
15295;SDS011;7749;49.964;7.890;2022-10-22T00:58:36;9.40;;;5.80;;
15295;SDS011;7749;49.964;7.890;2022-10-22T01:01:10;10.87;;;5.73;;
15295;SDS011;7749;49.964;7.890;2022-10-22T01:03:42;11.47;;;7.20;;
15295;SDS011;7749;49.964;7.890;2022-10-22T01:06:11;12.53;;;7.20;;
15295;SDS011;7749;49.964;7.890;2022-10-22T01:09:02;9.47;;;7.17;;
15295;SDS011;7749;49.964;7.890;2022-10-22T01:14:51;9.77;;;7.13;;
15295;SDS011;7749;49.964;7.890;2022-10-22T01:17:49;10.20;;;7.23;;
15295;SDS011;7749;49.964;7.890;2022-10-22T01:31:44;11.53;;;8.37;;
15295;SDS011;7749;49.964;7.890;2022-10-22T01:34:17;14.43;;;8.27;;
15295;SDS011;7749;49.964;7.890;2022-10-22T01:36:46;11.20;;;9.03;;
15295;SDS011;7749;49.964;7.890;2022-10-22T01:39:14;11.40;;;8.63;;
15295;SDS011;7749;49.964;7.890;2022-10-22T01:41:43;12.73;;;8.77;;
15295;SDS011;7749;49.964;7.890;2022-10-22T01:44:28;13.87;;;9.37;;
15295;SDS011;7749;49.964;7.890;2022-10-22T01:50:29;10.73;;;8.43;;
15295;SDS011;7749;49.964;7.890;2022-10-22T01:53:02;11.03;;;8.93;;
15295;SDS011;7749;49.964;7.890;2022-10-22T01:58:38;12.10;;;9.10;;
15295;SDS011;7749;49.964;7.890;2022-10-22T02:01:12;12.40;;;8.93;;
15295;SDS011;7749;49.964;7.890;2022-10-22T02:03:44;10.03;;;8.00;;
15295;SDS011;7749;49.964;7.890;2022-10-22T02:06:26;9.80;;;7.83;;
15295;SDS011;7749;49.964;7.890;2022-10-22T02:08:56;11.13;;;8.17;;
15295;SDS011;7749;49.964;7.890;2022-10-22T02:11:25;10.33;;;7.37;;
15295;SDS011;7749;49.964;7.890;2022-10-22T02:13:54;9.37;;;7.40;;
15295;SDS011;7749;49.964;7.890;2022-10-22T02:21:55;7.97;;;7.17;;
15295;SDS011;7749;49.964;7.890;2022-10-22T02:24:23;10.20;;;7.57;;
15295;SDS011;7749;49.964;7.890;2022-10-22T02:26:53;12.40;;;6.67;;
15295;SDS011;7749;49.964;7.890;2022-10-22T02:29:34;14.37;;;7.17;;
15295;SDS011;7749;49.964;7.890;2022-10-22T02:32:06;9.93;;;6.50;;
15295;SDS011;7749;49.964;7.890;2022-10-22T02:34:37;11.27;;;7.40;;
15295;SDS011;7749;49.964;7.890;2022-10-22T02:37:05;9.40;;;5.90;;
15295;SDS011;7749;49.964;7.890;2022-10-22T02:39:33;9.00;;;6.33;;
15295;SDS011;7749;49.964;7.890;2022-10-22T02:42:01;9.13;;;5.87;;
15295;SDS011;7749;49.964;7.890;2022-10-22T02:44:31;11.70;;;6.63;;
15295;SDS011;7749;49.964;7.890;2022-10-22T02:46:58;11.33;;;6.27;;
15295;SDS011;7749;49.964;7.890;2022-10-22T02:49:26;12.13;;;5.77;;
15295;SDS011;7749;49.964;7.890;2022-10-22T02:51:54;8.57;;;5.47;;
15295;SDS011;7749;49.964;7.890;2022-10-22T02:54:21;5.50;;;4.80;;
15295;SDS011;7749;49.964;7.890;2022-10-22T02:56:49;8.07;;;5.10;;
15295;SDS011;7749;49.964;7.890;2022-10-22T02:59:17;8.37;;;5.10;;
15295;SDS011;7749;49.964;7.890;2022-10-22T03:01:44;8.00;;;5.50;;
15295;SDS011;7749;49.964;7.890;2022-10-22T03:04:12;6.70;;;4.63;;
15295;SDS011;7749;49.964;7.890;2022-10-22T03:06:39;5.50;;;4.17;;
15295;SDS011;7749;49.964;7.890;2022-10-22T03:09:10;8.03;;;4.50;;
15295;SDS011;7749;49.964;7.890;2022-10-22T03:11:37;9.17;;;5.20;;
15295;SDS011;7749;49.964;7.890;2022-10-22T03:14:08;9.47;;;5.40;;
15295;SDS011;7749;49.964;7.890;2022-10-22T03:16:35;6.93;;;4.70;;
15295;SDS011;7749;49.964;7.890;2022-10-22T03:19:06;8.80;;;5.07;;
15295;SDS011;7749;49.964;7.890;2022-10-22T03:21:36;7.23;;;4.70;;
15295;SDS011;7749;49.964;7.890;2022-10-22T03:24:10;9.27;;;4.50;;
15295;SDS011;7749;49.964;7.890;2022-10-22T03:26:40;9.77;;;4.57;;
15295;SDS011;7749;49.964;7.890;2022-10-22T03:29:09;8.87;;;4.43;;
15295;SDS011;7749;49.964;7.890;2022-10-22T03:31:38;7.47;;;3.97;;
15295;SDS011;7749;49.964;7.890;2022-10-22T03:34:06;9.90;;;4.43;;
15295;SDS011;7749;49.964;7.890;2022-10-22T03:36:34;5.00;;;3.70;;
15295;SDS011;7749;49.964;7.890;2022-10-22T03:39:02;14.40;;;8.50;;
15295;SDS011;7749;49.964;7.890;2022-10-22T03:41:31;12.30;;;5.83;;
15295;SDS011;7749;49.964;7.890;2022-10-22T03:44:00;9.17;;;5.20;;
15295;SDS011;7749;49.964;7.890;2022-10-22T03:46:28;10.83;;;4.63;;
15295;SDS011;7749;49.964;7.890;2022-10-22T03:48:59;8.73;;;5.90;;
15295;SDS011;7749;49.964;7.890;2022-10-22T03:51:27;8.87;;;5.63;;
15295;SDS011;7749;49.964;7.890;2022-10-22T03:53:55;10.37;;;5.40;;
15295;SDS011;7749;49.964;7.890;2022-10-22T03:56:22;10.80;;;6.30;;
15295;SDS011;7749;49.964;7.890;2022-10-22T03:58:50;12.13;;;6.13;;
15295;SDS011;7749;49.964;7.890;2022-10-22T04:01:22;9.87;;;6.20;;
15295;SDS011;7749;49.964;7.890;2022-10-22T04:03:50;6.33;;;3.40;;
15295;SDS011;7749;49.964;7.890;2022-10-22T04:06:18;10.23;;;4.97;;
15295;SDS011;7749;49.964;7.890;2022-10-22T04:08:46;10.50;;;4.73;;
15295;SDS011;7749;49.964;7.890;2022-10-22T04:11:14;9.23;;;5.27;;
15295;SDS011;7749;49.964;7.890;2022-10-22T04:13:43;10.67;;;4.77;;
15295;SDS011;7749;49.964;7.890;2022-10-22T04:16:19;6.07;;;3.73;;
15295;SDS011;7749;49.964;7.890;2022-10-22T04:18:52;6.87;;;4.20;;
15295;SDS011;7749;49.964;7.890;2022-10-22T04:21:19;7.83;;;4.20;;
15295;SDS011;7749;49.964;7.890;2022-10-22T04:23:48;7.83;;;4.10;;
15295;SDS011;7749;49.964;7.890;2022-10-22T04:26:18;6.77;;;3.80;;
15295;SDS011;7749;49.964;7.890;2022-10-22T04:28:46;8.37;;;3.50;;
15295;SDS011;7749;49.964;7.890;2022-10-22T04:31:17;6.83;;;3.70;;
15295;SDS011;7749;49.964;7.890;2022-10-22T04:33:56;8.63;;;3.50;;
15295;SDS011;7749;49.964;7.890;2022-10-22T04:39:11;4.70;;;3.77;;
15295;SDS011;7749;49.964;7.890;2022-10-22T04:41:40;4.67;;;3.20;;
15295;SDS011;7749;49.964;7.890;2022-10-22T04:44:08;6.30;;;3.50;;
15295;SDS011;7749;49.964;7.890;2022-10-22T04:46:42;6.63;;;3.77;;
15295;SDS011;7749;49.964;7.890;2022-10-22T04:49:09;5.27;;;3.30;;
15295;SDS011;7749;49.964;7.890;2022-10-22T04:51:37;5.43;;;3.03;;
15295;SDS011;7749;49.964;7.890;2022-10-22T04:54:05;7.53;;;3.43;;
15295;SDS011;7749;49.964;7.890;2022-10-22T04:56:32;6.77;;;3.57;;
15295;SDS011;7749;49.964;7.890;2022-10-22T04:59:01;8.97;;;3.83;;
15295;SDS011;7749;49.964;7.890;2022-10-22T05:01:32;5.57;;;3.27;;
15295;SDS011;7749;49.964;7.890;2022-10-22T05:04:12;7.60;;;3.93;;
15295;SDS011;7749;49.964;7.890;2022-10-22T05:06:42;5.80;;;3.10;;
15295;SDS011;7749;49.964;7.890;2022-10-22T05:09:11;6.07;;;3.17;;
15295;SDS011;7749;49.964;7.890;2022-10-22T05:11:41;4.43;;;3.03;;
15295;SDS011;7749;49.964;7.890;2022-10-22T05:14:19;5.27;;;2.90;;
15295;SDS011;7749;49.964;7.890;2022-10-22T05:16:48;6.50;;;2.90;;
15295;SDS011;7749;49.964;7.890;2022-10-22T05:19:18;6.17;;;2.37;;
15295;SDS011;7749;49.964;7.890;2022-10-22T05:21:53;4.20;;;2.43;;
15295;SDS011;7749;49.964;7.890;2022-10-22T05:24:22;5.17;;;1.87;;
15295;SDS011;7749;49.964;7.890;2022-10-22T05:26:51;3.03;;;1.60;;
15295;SDS011;7749;49.964;7.890;2022-10-22T05:29:19;3.40;;;1.67;;
15295;SDS011;7749;49.964;7.890;2022-10-22T05:31:47;2.93;;;1.30;;
15295;SDS011;7749;49.964;7.890;2022-10-22T05:34:15;3.97;;;1.73;;
15295;SDS011;7749;49.964;7.890;2022-10-22T05:36:43;4.47;;;1.33;;
15295;SDS011;7749;49.964;7.890;2022-10-22T05:39:14;4.37;;;1.40;;
15295;SDS011;7749;49.964;7.890;2022-10-22T05:41:41;3.63;;;1.57;;
15295;SDS011;7749;49.964;7.890;2022-10-22T05:44:10;3.60;;;1.30;;
15295;SDS011;7749;49.964;7.890;2022-10-22T05:46:38;3.33;;;1.30;;
15295;SDS011;7749;49.964;7.890;2022-10-22T05:49:06;3.00;;;1.50;;
15295;SDS011;7749;49.964;7.890;2022-10-22T05:51:34;3.03;;;1.30;;
15295;SDS011;7749;49.964;7.890;2022-10-22T05:54:04;2.37;;;1.50;;
15295;SDS011;7749;49.964;7.890;2022-10-22T05:56:33;4.63;;;1.60;;
15295;SDS011;7749;49.964;7.890;2022-10-22T05:59:02;2.60;;;1.40;;
15295;SDS011;7749;49.964;7.890;2022-10-22T06:01:32;2.30;;;1.50;;
15295;SDS011;7749;49.964;7.890;2022-10-22T06:04:05;2.80;;;1.77;;
15295;SDS011;7749;49.964;7.890;2022-10-22T06:06:38;4.13;;;2.20;;
15295;SDS011;7749;49.964;7.890;2022-10-22T06:09:12;4.53;;;2.10;;
15295;SDS011;7749;49.964;7.890;2022-10-22T06:11:46;14.90;;;2.30;;
15295;SDS011;7749;49.964;7.890;2022-10-22T06:14:14;11.07;;;2.50;;
15295;SDS011;7749;49.964;7.890;2022-10-22T06:16:42;7.13;;;1.80;;
15295;SDS011;7749;49.964;7.890;2022-10-22T06:19:11;2.47;;;1.43;;
15295;SDS011;7749;49.964;7.890;2022-10-22T06:21:45;3.93;;;1.80;;
15295;SDS011;7749;49.964;7.890;2022-10-22T06:24:13;8.00;;;2.30;;
15295;SDS011;7749;49.964;7.890;2022-10-22T06:26:41;4.93;;;1.70;;
15295;SDS011;7749;49.964;7.890;2022-10-22T06:29:12;5.37;;;1.63;;
15295;SDS011;7749;49.964;7.890;2022-10-22T06:31:39;2.30;;;1.60;;
15295;SDS011;7749;49.964;7.890;2022-10-22T06:34:09;5.87;;;1.80;;
15295;SDS011;7749;49.964;7.890;2022-10-22T06:36:38;5.97;;;1.80;;
15295;SDS011;7749;49.964;7.890;2022-10-22T06:39:12;4.67;;;1.80;;
15295;SDS011;7749;49.964;7.890;2022-10-22T06:41:42;1.83;;;1.50;;
15295;SDS011;7749;49.964;7.890;2022-10-22T06:44:13;6.60;;;1.90;;
15295;SDS011;7749;49.964;7.890;2022-10-22T06:46:42;2.80;;;1.80;;
15295;SDS011;7749;49.964;7.890;2022-10-22T06:49:12;4.80;;;2.50;;
15295;SDS011;7749;49.964;7.890;2022-10-22T06:51:41;3.27;;;2.60;;
15295;SDS011;7749;49.964;7.890;2022-10-22T06:54:09;2.93;;;1.87;;
15295;SDS011;7749;49.964;7.890;2022-10-22T06:56:36;4.53;;;2.17;;
15295;SDS011;7749;49.964;7.890;2022-10-22T06:59:07;3.17;;;1.90;;
15295;SDS011;7749;49.964;7.890;2022-10-22T07:01:35;5.27;;;2.50;;
15295;SDS011;7749;49.964;7.890;2022-10-22T07:04:06;4.93;;;2.30;;
15295;SDS011;7749;49.964;7.890;2022-10-22T07:06:35;4.97;;;2.37;;
15295;SDS011;7749;49.964;7.890;2022-10-22T07:09:06;3.93;;;1.97;;
15295;SDS011;7749;49.964;7.890;2022-10-22T07:11:52;3.90;;;2.33;;
15295;SDS011;7749;49.964;7.890;2022-10-22T07:14:20;4.43;;;2.47;;
15295;SDS011;7749;49.964;7.890;2022-10-22T07:16:48;5.07;;;2.33;;
15295;SDS011;7749;49.964;7.890;2022-10-22T07:19:15;5.10;;;2.97;;
15295;SDS011;7749;49.964;7.890;2022-10-22T07:21:43;6.63;;;2.30;;
15295;SDS011;7749;49.964;7.890;2022-10-22T07:24:10;5.13;;;2.37;;
15295;SDS011;7749;49.964;7.890;2022-10-22T07:26:38;5.30;;;2.90;;
15295;SDS011;7749;49.964;7.890;2022-10-22T07:29:06;5.37;;;2.50;;
15295;SDS011;7749;49.964;7.890;2022-10-22T07:31:33;5.57;;;2.03;;
15295;SDS011;7749;49.964;7.890;2022-10-22T07:34:01;6.40;;;2.00;;
15295;SDS011;7749;49.964;7.890;2022-10-22T07:36:32;5.87;;;2.40;;
15295;SDS011;7749;49.964;7.890;2022-10-22T07:39:00;3.27;;;2.00;;
15295;SDS011;7749;49.964;7.890;2022-10-22T07:41:30;3.33;;;2.10;;
15295;SDS011;7749;49.964;7.890;2022-10-22T07:43:58;3.50;;;1.90;;
15295;SDS011;7749;49.964;7.890;2022-10-22T07:46:26;3.67;;;2.23;;
15295;SDS011;7749;49.964;7.890;2022-10-22T07:48:54;2.87;;;1.73;;
15295;SDS011;7749;49.964;7.890;2022-10-22T07:51:21;4.23;;;2.00;;
15295;SDS011;7749;49.964;7.890;2022-10-22T07:53:49;4.07;;;1.90;;
15295;SDS011;7749;49.964;7.890;2022-10-22T07:56:17;4.53;;;1.90;;
15295;SDS011;7749;49.964;7.890;2022-10-22T07:58:44;4.03;;;1.93;;
15295;SDS011;7749;49.964;7.890;2022-10-22T08:01:12;3.00;;;1.60;;
15295;SDS011;7749;49.964;7.890;2022-10-22T08:03:40;4.70;;;1.80;;
15295;SDS011;7749;49.964;7.890;2022-10-22T08:06:08;4.40;;;1.40;;
15295;SDS011;7749;49.964;7.890;2022-10-22T08:08:39;4.33;;;2.00;;
15295;SDS011;7749;49.964;7.890;2022-10-22T08:11:08;6.20;;;2.07;;
15295;SDS011;7749;49.964;7.890;2022-10-22T08:13:36;6.87;;;1.43;;
15295;SDS011;7749;49.964;7.890;2022-10-22T08:16:11;5.60;;;1.97;;
15295;SDS011;7749;49.964;7.890;2022-10-22T08:18:38;2.90;;;1.30;;
15295;SDS011;7749;49.964;7.890;2022-10-22T08:21:06;3.33;;;1.57;;
15295;SDS011;7749;49.964;7.890;2022-10-22T08:23:34;5.47;;;1.60;;
15295;SDS011;7749;49.964;7.890;2022-10-22T08:26:04;6.83;;;1.60;;
15295;SDS011;7749;49.964;7.890;2022-10-22T08:28:32;2.47;;;1.20;;
15295;SDS011;7749;49.964;7.890;2022-10-22T08:31:03;3.33;;;1.70;;
15295;SDS011;7749;49.964;7.890;2022-10-22T08:33:33;6.47;;;1.60;;
15295;SDS011;7749;49.964;7.890;2022-10-22T08:36:01;7.10;;;1.57;;
15295;SDS011;7749;49.964;7.890;2022-10-22T08:38:29;2.20;;;1.20;;
15295;SDS011;7749;49.964;7.890;2022-10-22T08:41:05;4.77;;;1.30;;
15295;SDS011;7749;49.964;7.890;2022-10-22T08:49:04;2.20;;;1.30;;
15295;SDS011;7749;49.964;7.890;2022-10-22T08:51:46;5.60;;;0.90;;
15295;SDS011;7749;49.964;7.890;2022-10-22T08:57:15;4.27;;;1.17;;
15295;SDS011;7749;49.964;7.890;2022-10-22T09:00:03;1.73;;;1.10;;
15295;SDS011;7749;49.964;7.890;2022-10-22T09:02:55;3.13;;;1.40;;
15295;SDS011;7749;49.964;7.890;2022-10-22T09:08:11;4.60;;;1.60;;
15295;SDS011;7749;49.964;7.890;2022-10-22T09:10:42;3.10;;;1.40;;
15295;SDS011;7749;49.964;7.890;2022-10-22T09:13:16;3.30;;;1.07;;
15295;SDS011;7749;49.964;7.890;2022-10-22T09:15:50;2.40;;;1.20;;
15295;SDS011;7749;49.964;7.890;2022-10-22T09:18:41;2.20;;;0.90;;
15295;SDS011;7749;49.964;7.890;2022-10-22T09:30:01;2.00;;;0.83;;
15295;SDS011;7749;49.964;7.890;2022-10-22T09:32:29;4.23;;;1.00;;
15295;SDS011;7749;49.964;7.890;2022-10-22T09:34:59;3.30;;;1.10;;
15295;SDS011;7749;49.964;7.890;2022-10-22T09:37:30;4.35;;;0.90;;
15295;SDS011;7749;49.964;7.890;2022-10-22T09:39:57;6.03;;;1.30;;
15295;SDS011;7749;49.964;7.890;2022-10-22T09:42:31;4.18;;;1.20;;
15295;SDS011;7749;49.964;7.890;2022-10-22T09:45:04;1.08;;;0.98;;
15295;SDS011;7749;49.964;7.890;2022-10-22T09:47:33;1.83;;;0.98;;
15295;SDS011;7749;49.964;7.890;2022-10-22T09:50:34;4.53;;;1.00;;
15295;SDS011;7749;49.964;7.890;2022-10-22T09:53:13;2.67;;;1.20;;
15295;SDS011;7749;49.964;7.890;2022-10-22T09:55:48;1.65;;;0.93;;
15295;SDS011;7749;49.964;7.890;2022-10-22T09:58:18;4.30;;;0.93;;
15295;SDS011;7749;49.964;7.890;2022-10-22T10:00:53;2.63;;;1.05;;
15295;SDS011;7749;49.964;7.890;2022-10-22T10:03:26;3.03;;;0.70;;
15295;SDS011;7749;49.964;7.890;2022-10-22T10:05:59;3.95;;;0.90;;
15295;SDS011;7749;49.964;7.890;2022-10-22T10:08:32;1.70;;;0.80;;
15295;SDS011;7749;49.964;7.890;2022-10-22T10:11:08;4.35;;;0.80;;
15295;SDS011;7749;49.964;7.890;2022-10-22T10:22:06;4.68;;;0.88;;
15295;SDS011;7749;49.964;7.890;2022-10-22T10:27:45;3.72;;;1.30;;
15295;SDS011;7749;49.964;7.890;2022-10-22T10:30:22;4.85;;;1.08;;
15295;SDS011;7749;49.964;7.890;2022-10-22T10:36:07;1.88;;;0.75;;
15295;SDS011;7749;49.964;7.890;2022-10-22T10:49:46;6.60;;;1.10;;
15295;SDS011;7749;49.964;7.890;2022-10-22T10:55:12;3.25;;;0.70;;
15295;SDS011;7749;49.964;7.890;2022-10-22T10:58:17;3.00;;;0.90;;
15295;SDS011;7749;49.964;7.890;2022-10-22T11:00:58;3.60;;;0.88;;
15295;SDS011;7749;49.964;7.890;2022-10-22T11:06:33;2.22;;;0.88;;
15295;SDS011;7749;49.964;7.890;2022-10-22T11:09:07;4.50;;;1.00;;
15295;SDS011;7749;49.964;7.890;2022-10-22T11:11:54;1.92;;;0.80;;
15295;SDS011;7749;49.964;7.890;2022-10-22T11:14:28;2.08;;;0.80;;
15295;SDS011;7749;49.964;7.890;2022-10-22T11:17:15;1.95;;;1.00;;
15295;SDS011;7749;49.964;7.890;2022-10-22T11:19:45;3.63;;;1.00;;
15295;SDS011;7749;49.964;7.890;2022-10-22T11:22:26;2.38;;;0.93;;
15295;SDS011;7749;49.964;7.890;2022-10-22T11:25:02;3.33;;;1.10;;
15295;SDS011;7749;49.964;7.890;2022-10-22T11:30:13;2.05;;;0.85;;
15295;SDS011;7749;49.964;7.890;2022-10-22T11:32:50;5.63;;;0.90;;
15295;SDS011;7749;49.964;7.890;2022-10-22T11:35:21;4.43;;;1.02;;
15295;SDS011;7749;49.964;7.890;2022-10-22T11:37:53;2.97;;;0.90;;
15295;SDS011;7749;49.964;7.890;2022-10-22T11:42:56;3.25;;;1.00;;
15295;SDS011;7749;49.964;7.890;2022-10-22T11:45:34;2.22;;;0.90;;
15295;SDS011;7749;49.964;7.890;2022-10-22T11:50:58;5.15;;;1.30;;
15295;SDS011;7749;49.964;7.890;2022-10-22T11:53:36;3.35;;;1.30;;
15295;SDS011;7749;49.964;7.890;2022-10-22T12:08:51;4.40;;;1.20;;
15295;SDS011;7749;49.964;7.890;2022-10-22T12:11:38;3.92;;;0.88;;
15295;SDS011;7749;49.964;7.890;2022-10-22T12:14:30;5.60;;;1.45;;
15295;SDS011;7749;49.964;7.890;2022-10-22T12:19:37;3.47;;;1.20;;
15295;SDS011;7749;49.964;7.890;2022-10-22T12:24:39;3.10;;;1.38;;
15295;SDS011;7749;49.964;7.890;2022-10-22T12:27:22;4.50;;;1.08;;
15295;SDS011;7749;49.964;7.890;2022-10-22T12:29:55;4.20;;;1.30;;
15295;SDS011;7749;49.964;7.890;2022-10-22T12:32:34;4.03;;;1.13;;
15295;SDS011;7749;49.964;7.890;2022-10-22T12:35:04;5.43;;;2.95;;
15295;SDS011;7749;49.964;7.890;2022-10-22T12:37:37;4.10;;;1.50;;
15295;SDS011;7749;49.964;7.890;2022-10-22T12:40:28;4.22;;;1.63;;
15295;SDS011;7749;49.964;7.890;2022-10-22T12:43:11;5.95;;;1.38;;
15295;SDS011;7749;49.964;7.890;2022-10-22T12:45:44;8.60;;;1.30;;
15295;SDS011;7749;49.964;7.890;2022-10-22T12:50:46;3.95;;;1.40;;
15295;SDS011;7749;49.964;7.890;2022-10-22T12:53:18;3.33;;;1.13;;
15295;SDS011;7749;49.964;7.890;2022-10-22T12:55:46;5.13;;;1.40;;
15295;SDS011;7749;49.964;7.890;2022-10-22T12:58:21;2.60;;;1.00;;
15295;SDS011;7749;49.964;7.890;2022-10-22T13:00:54;3.08;;;1.38;;
15295;SDS011;7749;49.964;7.890;2022-10-22T13:03:32;4.80;;;1.40;;
15295;SDS011;7749;49.964;7.890;2022-10-22T13:09:05;4.63;;;1.30;;
15295;SDS011;7749;49.964;7.890;2022-10-22T13:14:31;5.95;;;1.40;;
15295;SDS011;7749;49.964;7.890;2022-10-22T13:17:04;5.97;;;1.40;;
15295;SDS011;7749;49.964;7.890;2022-10-22T13:19:38;3.75;;;1.23;;
15295;SDS011;7749;49.964;7.890;2022-10-22T13:22:30;7.82;;;1.25;;
15295;SDS011;7749;49.964;7.890;2022-10-22T13:25:02;6.70;;;1.35;;
15295;SDS011;7749;49.964;7.890;2022-10-22T13:27:30;4.53;;;1.20;;
15295;SDS011;7749;49.964;7.890;2022-10-22T13:30:00;4.78;;;1.20;;
15295;SDS011;7749;49.964;7.890;2022-10-22T13:32:35;7.80;;;1.60;;
15295;SDS011;7749;49.964;7.890;2022-10-22T13:35:03;4.35;;;1.20;;
15295;SDS011;7749;49.964;7.890;2022-10-22T13:37:31;5.18;;;1.40;;
15295;SDS011;7749;49.964;7.890;2022-10-22T13:40:00;3.42;;;1.17;;
15295;SDS011;7749;49.964;7.890;2022-10-22T13:42:28;5.57;;;1.42;;
15295;SDS011;7749;49.964;7.890;2022-10-22T13:44:55;5.35;;;1.40;;
15295;SDS011;7749;49.964;7.890;2022-10-22T13:47:25;5.78;;;1.17;;
15295;SDS011;7749;49.964;7.890;2022-10-22T13:49:55;3.20;;;1.10;;
15295;SDS011;7749;49.964;7.890;2022-10-22T13:52:37;2.83;;;1.23;;
15295;SDS011;7749;49.964;7.890;2022-10-22T13:55:13;6.07;;;1.90;;
15295;SDS011;7749;49.964;7.890;2022-10-22T13:57:43;3.15;;;1.08;;
15295;SDS011;7749;49.964;7.890;2022-10-22T14:00:13;2.85;;;0.95;;
15295;SDS011;7749;49.964;7.890;2022-10-22T14:02:42;5.25;;;1.73;;
15295;SDS011;7749;49.964;7.890;2022-10-22T14:05:12;4.55;;;1.15;;
15295;SDS011;7749;49.964;7.890;2022-10-22T14:07:41;4.68;;;1.35;;
15295;SDS011;7749;49.964;7.890;2022-10-22T14:10:16;3.53;;;1.33;;
15295;SDS011;7749;49.964;7.890;2022-10-22T14:12:49;4.70;;;1.38;;
15295;SDS011;7749;49.964;7.890;2022-10-22T14:15:23;4.25;;;1.55;;
15295;SDS011;7749;49.964;7.890;2022-10-22T14:17:55;4.10;;;1.20;;
15295;SDS011;7749;49.964;7.890;2022-10-22T14:20:25;4.40;;;1.40;;
15295;SDS011;7749;49.964;7.890;2022-10-22T14:22:58;3.95;;;1.70;;
15295;SDS011;7749;49.964;7.890;2022-10-22T14:25:41;4.82;;;1.20;;
15295;SDS011;7749;49.964;7.890;2022-10-22T14:28:11;3.10;;;1.50;;
15295;SDS011;7749;49.964;7.890;2022-10-22T14:30:39;3.30;;;1.30;;
15295;SDS011;7749;49.964;7.890;2022-10-22T14:35:42;4.43;;;1.50;;
15295;SDS011;7749;49.964;7.890;2022-10-22T14:38:12;5.30;;;1.88;;
15295;SDS011;7749;49.964;7.890;2022-10-22T14:40:40;3.72;;;1.60;;
15295;SDS011;7749;49.964;7.890;2022-10-22T14:43:09;4.97;;;1.73;;
15295;SDS011;7749;49.964;7.890;2022-10-22T14:45:40;5.53;;;1.13;;
15295;SDS011;7749;49.964;7.890;2022-10-22T14:48:07;4.13;;;1.48;;
15295;SDS011;7749;49.964;7.890;2022-10-22T14:50:35;4.05;;;1.13;;
15295;SDS011;7749;49.964;7.890;2022-10-22T14:53:03;3.45;;;1.30;;
15295;SDS011;7749;49.964;7.890;2022-10-22T14:55:30;4.82;;;1.30;;
15295;SDS011;7749;49.964;7.890;2022-10-22T14:57:58;11.45;;;1.25;;
15295;SDS011;7749;49.964;7.890;2022-10-22T15:00:26;6.72;;;1.50;;
15295;SDS011;7749;49.964;7.890;2022-10-22T15:02:53;4.75;;;1.50;;
15295;SDS011;7749;49.964;7.890;2022-10-22T15:05:21;3.50;;;1.17;;
15295;SDS011;7749;49.964;7.890;2022-10-22T15:07:49;5.80;;;1.48;;
15295;SDS011;7749;49.964;7.890;2022-10-22T15:10:17;5.60;;;1.75;;
15295;SDS011;7749;49.964;7.890;2022-10-22T15:12:47;6.13;;;1.52;;
15295;SDS011;7749;49.964;7.890;2022-10-22T15:15:20;9.07;;;1.63;;
15295;SDS011;7749;49.964;7.890;2022-10-22T15:17:49;5.57;;;1.27;;
15295;SDS011;7749;49.964;7.890;2022-10-22T15:20:19;5.88;;;1.42;;
15295;SDS011;7749;49.964;7.890;2022-10-22T15:22:49;7.18;;;1.30;;
15295;SDS011;7749;49.964;7.890;2022-10-22T15:25:16;6.93;;;1.55;;
15295;SDS011;7749;49.964;7.890;2022-10-22T15:27:44;8.57;;;1.42;;
15295;SDS011;7749;49.964;7.890;2022-10-22T15:30:17;7.05;;;1.70;;
15295;SDS011;7749;49.964;7.890;2022-10-22T15:32:47;8.23;;;1.60;;
15295;SDS011;7749;49.964;7.890;2022-10-22T15:35:15;5.15;;;1.20;;
15295;SDS011;7749;49.964;7.890;2022-10-22T15:37:43;7.03;;;1.33;;
15295;SDS011;7749;49.964;7.890;2022-10-22T15:40:11;4.82;;;1.33;;
15295;SDS011;7749;49.964;7.890;2022-10-22T15:42:41;7.90;;;1.50;;
15295;SDS011;7749;49.964;7.890;2022-10-22T15:45:09;8.38;;;1.33;;
15295;SDS011;7749;49.964;7.890;2022-10-22T15:47:44;7.20;;;1.40;;
15295;SDS011;7749;49.964;7.890;2022-10-22T15:50:14;8.25;;;2.20;;
15295;SDS011;7749;49.964;7.890;2022-10-22T15:52:44;6.35;;;2.22;;
15295;SDS011;7749;49.964;7.890;2022-10-22T15:55:12;9.02;;;2.83;;
15295;SDS011;7749;49.964;7.890;2022-10-22T15:57:40;5.55;;;1.88;;
15295;SDS011;7749;49.964;7.890;2022-10-22T16:00:08;6.82;;;1.70;;
15295;SDS011;7749;49.964;7.890;2022-10-22T16:02:40;4.47;;;1.42;;
15295;SDS011;7749;49.964;7.890;2022-10-22T16:05:08;4.82;;;1.38;;
15295;SDS011;7749;49.964;7.890;2022-10-22T16:07:36;8.75;;;1.58;;
15295;SDS011;7749;49.964;7.890;2022-10-22T16:10:04;6.28;;;1.67;;
15295;SDS011;7749;49.964;7.890;2022-10-22T16:12:41;6.40;;;1.40;;
15295;SDS011;7749;49.964;7.890;2022-10-22T16:15:33;6.93;;;1.30;;
15295;SDS011;7749;49.964;7.890;2022-10-22T16:18:01;5.35;;;1.80;;
15295;SDS011;7749;49.964;7.890;2022-10-22T16:20:29;6.97;;;2.65;;
15295;SDS011;7749;49.964;7.890;2022-10-22T16:22:57;8.35;;;3.50;;
15295;SDS011;7749;49.964;7.890;2022-10-22T16:25:25;7.82;;;3.35;;
15295;SDS011;7749;49.964;7.890;2022-10-22T16:27:52;10.17;;;4.73;;
15295;SDS011;7749;49.964;7.890;2022-10-22T16:30:20;12.00;;;5.73;;
15295;SDS011;7749;49.964;7.890;2022-10-22T16:32:47;8.17;;;4.60;;
15295;SDS011;7749;49.964;7.890;2022-10-22T16:35:18;8.77;;;3.67;;
15295;SDS011;7749;49.964;7.890;2022-10-22T16:37:47;8.63;;;2.67;;
15295;SDS011;7749;49.964;7.890;2022-10-22T16:40:33;9.00;;;2.60;;
15295;SDS011;7749;49.964;7.890;2022-10-22T16:46:00;4.90;;;1.80;;
15295;SDS011;7749;49.964;7.890;2022-10-22T16:52:17;7.00;;;2.30;;
15295;SDS011;7749;49.964;7.890;2022-10-22T16:55:08;4.60;;;2.23;;
15295;SDS011;7749;49.964;7.890;2022-10-22T16:57:54;7.30;;;3.23;;
15295;SDS011;7749;49.964;7.890;2022-10-22T17:01:22;8.93;;;3.03;;
15295;SDS011;7749;49.964;7.890;2022-10-22T17:04:23;7.07;;;2.67;;
15295;SDS011;7749;49.964;7.890;2022-10-22T17:07:14;7.90;;;2.70;;
15295;SDS011;7749;49.964;7.890;2022-10-22T17:09:46;9.07;;;2.77;;
15295;SDS011;7749;49.964;7.890;2022-10-22T17:12:19;7.90;;;2.53;;
15295;SDS011;7749;49.964;7.890;2022-10-22T17:14:47;10.80;;;3.70;;
15295;SDS011;7749;49.964;7.890;2022-10-22T17:17:14;9.13;;;3.20;;
15295;SDS011;7749;49.964;7.890;2022-10-22T17:19:51;8.13;;;2.97;;
15295;SDS011;7749;49.964;7.890;2022-10-22T17:23:07;7.70;;;3.20;;
15295;SDS011;7749;49.964;7.890;2022-10-22T17:25:40;7.70;;;3.20;;
15295;SDS011;7749;49.964;7.890;2022-10-22T17:28:13;9.70;;;3.60;;
15295;SDS011;7749;49.964;7.890;2022-10-22T17:30:41;7.43;;;3.50;;
15295;SDS011;7749;49.964;7.890;2022-10-22T17:33:11;8.40;;;4.10;;